Time;durP1;ratioP1;P1;durP2;ratioP2;P2;SDS_P1;SDS_P2;PMS_P1;PMS_P2;Temp;Humidity;BMP_temperature;BMP_pressure;BME280_temperature;BME280_humidity;BME280_pressure;Samples;Min_cycle;Max_cycle;Signal;HPM_P1;HPM_P2
2022/08/13 00:00:08;;;;;;;5.00;4.50;;;27.00;60.30;;;;;;5033562;28;20037;-77
2022/08/13 00:02:33;;;;;;;6.00;4.50;;;27.00;60.20;;;;;;5032396;28;20072;-77
2022/08/13 00:05:02;;;;;;;5.10;4.60;;;27.00;60.30;;;;;;5033352;28;20433;-77
2022/08/13 00:07:28;;;;;;;5.18;4.25;;;27.00;60.30;;;;;;5033534;28;20072;-76
2022/08/13 00:09:54;;;;;;;4.82;4.38;;;26.90;60.40;;;;;;5032159;28;20021;-76
2022/08/13 00:15:25;;;;;;;8.38;4.75;;;27.00;60.40;;;;;;5031737;28;20068;-77
2022/08/13 00:17:50;;;;;;;8.73;4.20;;;27.00;60.40;;;;;;5033085;28;20385;-77
2022/08/13 00:20:17;;;;;;;6.38;4.30;;;27.00;60.50;;;;;;5031931;28;20056;-76
2022/08/13 00:22:43;;;;;;;6.18;4.35;;;27.00;60.50;;;;;;5033150;28;20116;-76
2022/08/13 00:25:09;;;;;;;4.35;3.95;;;27.00;60.50;;;;;;5031740;28;20095;-76
2022/08/13 00:27:35;;;;;;;13.27;5.28;;;27.00;60.60;;;;;;5031744;28;20439;-76
2022/08/13 00:30:02;;;;;;;7.50;4.47;;;27.00;60.70;;;;;;5031432;28;21178;-76
2022/08/13 00:32:30;;;;;;;6.15;4.38;;;27.00;60.70;;;;;;5031661;28;20075;-77
2022/08/13 00:34:59;;;;;;;4.72;4.30;;;27.00;60.70;;;;;;5031857;28;20438;-76
2022/08/13 00:37:26;;;;;;;5.50;4.18;;;27.00;60.70;;;;;;5029125;28;20030;-77
2022/08/13 00:39:53;;;;;;;6.13;4.07;;;27.00;60.70;;;;;;5013152;28;20045;-76
2022/08/13 00:42:23;;;;;;;5.45;3.92;;;27.00;60.70;;;;;;5011654;28;20025;-76
2022/08/13 00:44:49;;;;;;;4.53;3.78;;;27.00;60.80;;;;;;5012993;28;20026;-76
2022/08/13 00:50:00;;;;;;;6.38;4.55;;;27.00;60.80;;;;;;5013044;28;20041;-76
2022/08/13 00:52:30;;;;;;;4.65;4.05;;;27.00;60.80;;;;;;5012745;28;20045;-77
2022/08/13 00:55:00;;;;;;;7.22;4.32;;;27.00;60.80;;;;;;5012966;28;20064;-76
2022/08/13 00:57:28;;;;;;;5.50;4.30;;;27.00;60.90;;;;;;5011808;28;20117;-76
2022/08/13 00:59:54;;;;;;;11.48;4.35;;;27.00;61.00;;;;;;5011662;28;20026;-76
2022/08/13 01:02:20;;;;;;;5.65;4.00;;;27.00;61.00;;;;;;5011693;28;20040;-76
2022/08/13 01:04:46;;;;;;;6.57;4.05;;;27.00;61.00;;;;;;5012764;28;20522;-76
2022/08/13 01:07:14;;;;;;;7.07;4.05;;;27.00;61.00;;;;;;5012658;28;20109;-76
2022/08/13 01:09:40;;;;;;;5.97;4.18;;;27.00;61.00;;;;;;5012703;28;20408;-76
2022/08/13 01:12:09;;;;;;;4.75;4.18;;;27.00;61.00;;;;;;5011642;28;20440;-77
2022/08/13 01:14:35;;;;;;;13.23;4.53;;;27.00;61.00;;;;;;5011519;28;20029;-77
2022/08/13 01:17:01;;;;;;;7.68;4.07;;;27.00;61.00;;;;;;5011414;28;20026;-77
2022/08/13 01:19:27;;;;;;;10.13;4.22;;;27.00;61.10;;;;;;5011442;28;20053;-77
2022/08/13 01:21:52;;;;;;;6.78;4.30;;;27.00;61.10;;;;;;5012548;28;20116;-77
2022/08/13 01:24:20;;;;;;;5.10;4.25;;;27.00;61.10;;;;;;5011245;28;20022;-76
2022/08/13 01:26:47;;;;;;;10.00;4.57;;;27.00;61.10;;;;;;5013296;28;20025;-77
2022/08/13 01:29:13;;;;;;;5.45;4.47;;;27.00;61.20;;;;;;5017695;28;20097;-77
2022/08/13 01:31:40;;;;;;;6.32;4.07;;;27.00;61.10;;;;;;5035193;28;20168;-76
2022/08/13 01:34:06;;;;;;;5.90;3.78;;;27.00;61.20;;;;;;5035179;28;20052;-76
2022/08/13 01:36:34;;;;;;;5.45;3.88;;;27.00;61.20;;;;;;5035168;28;20484;-76
2022/08/13 01:39:05;;;;;;;7.28;4.22;;;27.00;61.20;;;;;;5018358;28;20022;-77
2022/08/13 01:41:32;;;;;;;5.00;3.97;;;27.00;61.20;;;;;;5015400;28;20022;-77
2022/08/13 01:44:04;;;;;;;7.65;3.40;;;27.00;61.20;;;;;;5015013;28;20076;-77
2022/08/13 01:50:28;;;;;;;6.03;4.30;;;27.00;61.20;;;;;;5015335;28;20014;-77
2022/08/13 01:52:02;;;;;;;10.32;4.22;;;27.00;61.20;;;;;;5015066;28;20022;-76
2022/08/13 01:54:28;;;;;;;6.75;4.85;;;27.00;61.20;;;;;;5014745;28;20420;-76
2022/08/13 01:56:57;;;;;;;9.75;3.83;;;27.00;61.20;;;;;;5014936;28;20515;-77
2022/08/13 01:59:23;;;;;;;8.95;4.20;;;27.00;61.30;;;;;;5015036;28;20026;-76
2022/08/13 02:01:48;;;;;;;5.40;4.15;;;27.00;61.30;;;;;;5016051;28;20391;-77
2022/08/13 02:04:14;;;;;;;4.35;3.75;;;27.00;61.20;;;;;;5015902;28;20037;-76
2022/08/13 02:06:40;;;;;;;4.65;3.70;;;27.00;61.20;;;;;;5016045;28;20029;-77
2022/08/13 02:09:06;;;;;;;8.77;4.30;;;27.00;61.20;;;;;;5015733;28;20177;-77
2022/08/13 02:11:34;;;;;;;10.70;4.22;;;27.00;61.40;;;;;;5015941;28;20112;-76
2022/08/13 02:14:02;;;;;;;6.95;3.95;;;27.00;61.40;;;;;;5014701;28;20029;-77
2022/08/13 02:16:32;;;;;;;6.97;4.22;;;27.00;61.40;;;;;;5014371;28;20061;-76
2022/08/13 02:18:57;;;;;;;7.38;4.15;;;27.00;61.40;;;;;;5014694;28;20105;-77
2022/08/13 02:21:25;;;;;;;16.08;4.22;;;27.00;61.50;;;;;;5014413;28;20543;-77
2022/08/13 02:23:57;;;;;;;7.28;3.75;;;27.00;61.60;;;;;;5014289;28;20036;-76
2022/08/13 02:26:23;;;;;;;;;;;27.00;61.50;;;;;;5014704;28;20487;-77
2022/08/13 02:28:51;;;;;;;7.57;3.95;;;27.00;61.40;;;;;;5047348;28;19952;-76
2022/08/13 02:31:18;;;;;;;6.13;4.00;;;27.00;61.50;;;;;;5033421;28;20092;-76
2022/08/13 02:33:43;;;;;;;8.70;4.55;;;27.00;61.50;;;;;;5035110;28;20067;-76
2022/08/13 02:36:10;;;;;;;5.60;3.97;;;27.00;61.50;;;;;;5035319;28;20029;-77
2022/08/13 02:38:37;;;;;;;7.28;3.75;;;27.00;61.60;;;;;;5019661;28;20025;-76
2022/08/13 02:43:47;;;;;;;5.50;4.07;;;27.00;62.60;;;;;;5014442;28;20083;-76
2022/08/13 02:46:14;;;;;;;7.88;3.92;;;27.00;61.70;;;;;;5015489;28;20430;-76
2022/08/13 02:48:40;;;;;;;6.30;4.03;;;27.10;61.70;;;;;;5013839;28;20075;-76
2022/08/13 02:51:05;;;;;;;4.85;3.90;;;27.00;61.70;;;;;;5013771;28;20022;-76
2022/08/13 02:53:31;;;;;;;4.28;3.60;;;27.10;61.70;;;;;;5014941;28;20037;-77
2022/08/13 02:55:57;;;;;;;7.45;3.75;;;27.00;61.70;;;;;;5013943;28;20080;-76
2022/08/13 02:58:22;;;;;;;8.77;3.83;;;27.00;61.70;;;;;;5013684;28;20022;-77
2022/08/13 03:00:49;;;;;;;9.23;3.97;;;27.00;61.70;;;;;;5013888;28;20061;-76
2022/08/13 03:03:16;;;;;;;5.32;3.72;;;27.10;61.80;;;;;;5013578;28;20484;-76
2022/08/13 03:05:41;;;;;;;4.70;3.65;;;27.00;61.70;;;;;;5013409;28;20030;-76
2022/08/13 03:08:07;;;;;;;5.18;3.75;;;27.00;61.70;;;;;;5014807;28;20028;-76
2022/08/13 03:10:33;;;;;;;9.40;4.00;;;27.00;61.80;;;;;;5013472;28;20095;-76
2022/08/13 03:13:07;;;;;;;4.90;3.50;;;27.00;61.80;;;;;;5013615;28;20431;-76
2022/08/13 03:15:33;;;;;;;5.20;3.78;;;27.00;61.70;;;;;;5013857;28;20542;-76
2022/08/13 03:17:59;;;;;;;5.55;3.33;;;27.00;61.80;;;;;;5013242;28;20021;-76
2022/08/13 03:20:25;;;;;;;5.85;3.88;;;27.00;61.80;;;;;;5014425;28;20568;-77
2022/08/13 03:22:53;;;;;;;3.75;3.45;;;27.00;61.80;;;;;;5013444;28;20093;-77
2022/08/13 03:25:25;;;;;;;4.85;3.78;;;27.00;61.80;;;;;;5013131;28;20072;-76
2022/08/13 03:27:51;;;;;;;7.57;3.63;;;27.00;61.80;;;;;;5013176;28;20030;-76
2022/08/13 03:30:17;;;;;;;5.65;3.33;;;27.00;61.80;;;;;;5024386;28;20056;-76
2022/08/13 03:32:46;;;;;;;7.15;3.55;;;27.00;61.80;;;;;;5034089;28;20415;-76
2022/08/13 03:35:14;;;;;;;5.32;3.45;;;27.00;61.80;;;;;;5032755;28;20090;-77
2022/08/13 03:37:40;;;;;;;7.65;3.42;;;27.00;61.80;;;;;;5028370;28;20273;-77
2022/08/13 03:40:07;;;;;;;5.88;3.92;;;27.00;61.80;;;;;;5013209;28;20022;-77
2022/08/13 03:42:33;;;;;;;5.60;3.35;;;27.00;61.90;;;;;;5012694;28;20572;-77
2022/08/13 03:44:59;;;;;;;4.15;3.42;;;27.00;62.00;;;;;;5014045;28;20105;-77
2022/08/13 03:47:25;;;;;;;3.95;3.42;;;27.00;62.00;;;;;;5012907;28;20022;-76
2022/08/13 03:49:50;;;;;;;3.85;3.55;;;27.00;62.10;;;;;;5013074;28;20483;-77
2022/08/13 03:52:16;;;;;;;5.15;3.95;;;27.00;62.00;;;;;;5013843;28;20051;-77
2022/08/13 03:54:41;;;;;;;4.18;3.65;;;27.00;62.10;;;;;;5013827;28;20443;-77
2022/08/13 03:57:08;;;;;;;4.22;3.60;;;27.00;62.20;;;;;;5013870;28;20034;-77
2022/08/13 03:59:33;;;;;;;4.68;3.50;;;27.00;62.20;;;;;;5013777;28;20026;-76
2022/08/13 04:02:02;;;;;;;5.45;3.42;;;27.00;62.30;;;;;;5012585;28;20084;-77
2022/08/13 04:04:28;;;;;;;5.13;3.75;;;27.00;62.20;;;;;;5012261;28;20026;-76
2022/08/13 04:06:54;;;;;;;5.18;3.60;;;27.00;62.40;;;;;;5013652;28;20068;-76
2022/08/13 04:09:19;;;;;;;4.10;3.33;;;27.00;62.40;;;;;;5013515;28;20516;-76
2022/08/13 04:11:46;;;;;;;3.70;3.40;;;27.00;62.50;;;;;;5012543;28;20022;-76
2022/08/13 04:14:12;;;;;;;4.60;3.45;;;27.00;62.50;;;;;;5013683;28;20496;-76
2022/08/13 04:16:39;;;;;;;5.53;3.40;;;27.00;62.40;;;;;;5012198;28;20025;-76
2022/08/13 04:19:06;;;;;;;3.80;3.33;;;27.00;62.40;;;;;;5013349;28;20026;-76
2022/08/13 04:21:33;;;;;;;6.18;3.50;;;27.00;62.30;;;;;;5012319;28;20053;-76
2022/08/13 04:23:58;;;;;;;3.65;3.35;;;27.00;62.40;;;;;;5012148;28;20076;-76
2022/08/13 04:26:25;;;;;;;4.80;3.65;;;27.00;62.40;;;;;;5013804;28;20492;-76
2022/08/13 04:28:53;;;;;;;5.55;3.72;;;27.00;62.40;;;;;;5013244;28;20393;-76
2022/08/13 04:31:19;;;;;;;4.68;3.33;;;27.00;62.30;;;;;;5013083;28;20046;-76
2022/08/13 04:33:45;;;;;;;4.32;3.83;;;27.00;62.30;;;;;;5011854;28;20021;-76
2022/08/13 04:36:11;;;;;;;3.95;3.30;;;27.00;62.30;;;;;;5021006;28;20030;-76
2022/08/13 04:38:37;;;;;;;4.00;3.45;;;27.00;62.30;;;;;;5031454;28;20032;-77
2022/08/13 04:41:03;;;;;;;3.92;3.10;;;27.00;62.40;;;;;;5031637;28;20029;-76
2022/08/13 04:43:29;;;;;;;3.92;3.42;;;27.00;62.40;;;;;;5032826;28;20059;-76
2022/08/13 04:46:00;;;;;;;3.63;3.25;;;27.00;62.40;;;;;;5032869;28;20032;-77
2022/08/13 04:48:28;;;;;;;4.22;3.40;;;27.00;62.40;;;;;;5031301;28;20017;-77
2022/08/13 04:50:53;;;;;;;3.90;3.45;;;27.00;62.40;;;;;;5031689;28;20022;-77
2022/08/13 04:53:26;;;;;;;5.28;3.53;;;27.00;62.40;;;;;;5032606;28;20025;-76
2022/08/13 04:55:52;;;;;;;5.25;3.20;;;27.00;62.40;;;;;;5031452;28;20557;-76
2022/08/13 04:58:18;;;;;;;3.78;3.47;;;27.00;62.40;;;;;;5031597;28;20025;-77
2022/08/13 05:00:44;;;;;;;4.50;3.10;;;27.00;62.30;;;;;;5031209;28;20482;-76
2022/08/13 05:03:22;;;;;;;3.13;2.92;;;27.00;62.40;;;;;;5031113;28;20448;-76
2022/08/13 05:05:49;;;;;;;3.70;3.40;;;27.00;62.40;;;;;;5032523;28;20018;-77
2022/08/13 05:08:15;;;;;;;7.15;3.42;;;27.00;62.40;;;;;;5031532;28;20085;-77
2022/08/13 05:10:44;;;;;;;3.88;3.53;;;27.00;62.50;;;;;;5031363;28;20060;-77
2022/08/13 05:13:20;;;;;;;3.72;3.00;;;27.00;62.30;;;;;;5031094;28;20044;-76
2022/08/13 05:15:46;;;;;;;4.38;3.42;;;27.00;62.40;;;;;;5032439;28;20075;-77
2022/08/13 05:18:12;;;;;;;3.45;3.13;;;27.00;62.40;;;;;;5032381;28;20484;-77
2022/08/13 05:20:39;;;;;;;3.88;3.47;;;27.00;62.30;;;;;;5032373;28;20056;-76
2022/08/13 05:23:12;;;;;;;5.22;3.42;;;27.00;62.40;;;;;;5032374;28;20017;-77
2022/08/13 05:25:38;;;;;;;4.40;3.38;;;27.00;62.30;;;;;;5031098;28;20029;-77
2022/08/13 05:28:03;;;;;;;3.45;3.15;;;27.00;62.20;;;;;;5032387;28;20025;-77
2022/08/13 05:30:29;;;;;;;4.38;2.97;;;27.00;62.30;;;;;;5030540;28;20107;-77
2022/08/13 05:32:57;;;;;;;3.75;3.10;;;27.00;62.30;;;;;;5031355;28;20531;-77
2022/08/13 05:35:23;;;;;;;4.40;3.28;;;27.00;62.30;;;;;;5032278;28;20055;-77
2022/08/13 05:37:52;;;;;;;3.58;3.28;;;27.00;62.30;;;;;;5023938;28;20396;-77
2022/08/13 05:40:18;;;;;;;3.42;3.10;;;27.00;62.20;;;;;;5011425;28;20080;-77
2022/08/13 05:42:44;;;;;;;4.38;3.30;;;27.00;62.40;;;;;;5012257;28;20034;-77
2022/08/13 05:45:10;;;;;;;3.78;3.17;;;27.00;62.40;;;;;;5010984;28;20061;-77
2022/08/13 05:47:36;;;;;;;3.20;2.95;;;27.00;62.40;;;;;;5011249;28;20018;-77
2022/08/13 05:50:08;;;;;;;3.65;3.35;;;27.00;62.40;;;;;;5011264;28;20026;-78
2022/08/13 05:52:34;;;;;;;;;;;27.00;62.40;;;;;;5011750;28;20025;-77
2022/08/13 05:55:00;;;;;;;4.30;3.35;;;27.00;62.30;;;;;;5044048;28;19905;-77
2022/08/13 05:57:25;;;;;;;3.78;2.80;;;27.00;62.40;;;;;;5012346;28;20448;-77
2022/08/13 06:05:20;;;;;;;3.33;3.08;;;27.00;62.50;;;;;;5011260;28;20060;-76
2022/08/13 06:07:46;;;;;;;3.40;3.10;;;27.00;62.40;;;;;;5012080;28;20029;-76
2022/08/13 06:10:12;;;;;;;4.18;3.00;;;27.00;62.40;;;;;;5011069;28;20018;-76
2022/08/13 06:12:42;;;;;;;3.20;2.90;;;27.00;62.40;;;;;;5011427;28;20040;-77
2022/08/13 06:15:10;;;;;;;5.53;3.25;;;27.00;62.50;;;;;;5014510;28;20026;-77
2022/08/13 06:17:35;;;;;;;3.55;3.22;;;27.00;62.60;;;;;;5014675;28;20030;-77
2022/08/13 06:20:02;;;;;;;8.98;3.15;;;27.00;62.60;;;;;;5014531;28;20014;-77
2022/08/13 06:22:28;;;;;;;6.65;3.70;;;27.00;62.60;;;;;;5014523;28;20112;-77
2022/08/13 06:24:54;;;;;;;6.07;3.08;;;27.00;62.70;;;;;;5014457;28;20065;-77
2022/08/13 06:27:20;;;;;;;5.35;3.15;;;27.00;62.60;;;;;;5015636;28;20490;-77
2022/08/13 06:29:45;;;;;;;8.48;3.30;;;27.00;62.70;;;;;;5021905;28;20036;-77
2022/08/13 06:32:11;;;;;;;5.90;3.25;;;27.00;62.70;;;;;;5034279;28;20108;-77
2022/08/13 06:34:37;;;;;;;10.00;3.10;;;27.00;62.70;;;;;;5034136;28;20030;-77
2022/08/13 06:37:03;;;;;;;5.45;3.22;;;27.00;62.70;;;;;;5034467;28;20087;-76
2022/08/13 06:39:32;;;;;;;4.38;3.38;;;27.00;62.70;;;;;;5014337;28;20033;-76
2022/08/13 06:42:02;;;;;;;5.55;2.97;;;27.00;62.80;;;;;;5014150;28;20045;-76
2022/08/13 06:44:32;;;;;;;9.20;3.47;;;27.00;62.80;;;;;;5013715;28;20034;-77
2022/08/13 06:47:03;;;;;;;12.00;3.45;;;27.00;62.80;;;;;;5013971;28;20041;-76
2022/08/13 06:49:30;;;;;;;6.60;3.08;;;27.00;62.90;;;;;;5014311;28;20081;-77
2022/08/13 06:51:57;;;;;;;6.70;2.80;;;26.90;62.80;;;;;;5015017;28;20026;-77
2022/08/13 06:54:24;;;;;;;7.75;3.33;;;27.00;63.00;;;;;;5015233;28;20030;-77
2022/08/13 06:56:50;;;;;;;15.20;3.67;;;27.00;63.00;;;;;;5014975;28;20050;-77
2022/08/13 06:59:16;;;;;;;10.57;3.35;;;27.00;63.00;;;;;;5014673;28;20053;-76
2022/08/13 07:01:41;;;;;;;9.40;3.45;;;27.00;63.00;;;;;;5013821;28;20029;-77
2022/08/13 07:04:10;;;;;;;8.15;3.60;;;27.00;63.00;;;;;;5013648;28;20034;-77
2022/08/13 07:06:36;;;;;;;5.90;3.08;;;27.00;63.00;;;;;;5014757;28;20022;-76
2022/08/13 07:09:02;;;;;;;10.45;3.45;;;27.00;63.00;;;;;;5013754;28;20045;-76
2022/08/13 07:11:29;;;;;;;7.65;2.97;;;27.00;63.00;;;;;;5013504;28;20053;-77
2022/08/13 07:14:00;;;;;;;5.70;3.33;;;27.00;63.00;;;;;;5014482;28;20022;-76
2022/08/13 07:16:30;;;;;;;10.57;3.65;;;26.90;63.00;;;;;;5013553;28;20026;-76
2022/08/13 07:18:56;;;;;;;9.30;3.10;;;27.00;63.10;;;;;;5013527;28;20087;-77
2022/08/13 07:21:24;;;;;;;5.80;3.40;;;27.00;63.10;;;;;;5014694;28;20107;-76
2022/08/13 07:23:51;;;;;;;5.72;3.08;;;26.90;63.00;;;;;;5013210;28;20026;-76
2022/08/13 07:26:18;;;;;;;14.40;3.38;;;27.00;63.10;;;;;;5013507;28;20022;-76
2022/08/13 07:28:45;;;;;;;10.38;3.17;;;26.90;63.10;;;;;;5012943;28;20024;-77
2022/08/13 07:31:10;;;;;;;5.88;2.90;;;27.00;63.20;;;;;;5031453;28;20045;-76
2022/08/13 07:33:42;;;;;;;8.98;3.33;;;27.00;63.20;;;;;;5033136;28;20075;-76
2022/08/13 07:36:10;;;;;;;13.05;3.08;;;27.00;63.20;;;;;;5033128;28;20531;-77
2022/08/13 07:38:36;;;;;;;8.05;3.25;;;27.00;63.20;;;;;;5020429;28;20084;-76
2022/08/13 07:41:02;;;;;;;12.25;3.10;;;27.00;63.20;;;;;;5012874;28;20485;-77
2022/08/13 07:43:29;;;;;;;5.10;3.13;;;27.00;63.30;;;;;;5014187;28;20068;-77
2022/08/13 07:46:15;;;;;;;8.90;3.10;;;27.00;63.30;;;;;;5012889;28;20477;-76
2022/08/13 07:48:42;;;;;;;12.93;3.00;;;27.00;63.30;;;;;;5012729;28;20055;-77
2022/08/13 07:51:19;;;;;;;11.23;3.17;;;27.00;63.40;;;;;;5012874;28;20018;-76
2022/08/13 07:53:49;;;;;;;8.70;3.42;;;27.00;63.40;;;;;;5012888;28;20032;-76
2022/08/13 07:56:31;;;;;;;9.65;3.70;;;27.00;63.40;;;;;;5012636;28;20030;-77
2022/08/13 07:59:01;;;;;;;10.95;3.30;;;27.00;63.40;;;;;;5012727;28;20049;-77
2022/08/13 08:01:31;;;;;;;8.68;3.35;;;27.00;63.50;;;;;;5012902;28;20033;-77
2022/08/13 08:03:57;;;;;;;11.88;3.38;;;27.00;63.50;;;;;;5013704;28;20061;-77
2022/08/13 08:06:23;;;;;;;15.70;3.28;;;27.00;63.60;;;;;;5012685;28;20473;-76
2022/08/13 08:08:52;;;;;;;5.13;3.30;;;26.90;63.50;;;;;;5012615;28;20014;-77
2022/08/13 08:14:03;;;;;;;11.90;3.30;;;27.00;63.70;;;;;;5012799;28;20044;-77
2022/08/13 08:16:30;;;;;;;6.95;2.95;;;27.00;63.70;;;;;;5013744;28;20506;-77
2022/08/13 08:19:00;;;;;;;15.75;3.90;;;27.00;63.80;;;;;;5012421;28;20019;-76
2022/08/13 08:21:26;;;;;;;14.75;3.45;;;27.00;63.80;;;;;;5013498;28;20112;-77
2022/08/13 08:23:57;;;;;;;16.50;3.55;;;27.00;63.80;;;;;;5012067;28;20190;-77
2022/08/13 08:26:25;;;;;;;14.70;4.32;;;26.90;63.70;;;;;;5013330;28;20022;-77
2022/08/13 08:28:52;;;;;;;10.82;3.03;;;27.00;63.90;;;;;;5013436;28;20495;-76
2022/08/13 08:31:17;;;;;;;10.90;3.42;;;27.00;64.00;;;;;;5031560;28;20056;-77
2022/08/13 08:33:43;;;;;;;12.30;3.72;;;27.00;64.10;;;;;;5033024;28;20025;-77
2022/08/13 08:36:09;;;;;;;8.63;3.10;;;27.00;64.00;;;;;;5031333;28;20117;-77
2022/08/13 08:44:23;;;;;;;8.77;3.25;;;27.00;64.10;;;;;;5012224;28;20399;-76
2022/08/13 08:46:56;;;;;;;11.20;3.42;;;27.00;64.00;;;;;;5011957;28;20513;-77
2022/08/13 08:49:22;;;;;;;8.90;3.25;;;27.00;64.10;;;;;;5011840;28;20018;-77
2022/08/13 08:51:50;;;;;;;9.90;3.25;;;27.00;64.10;;;;;;5011726;28;20033;-77
2022/08/13 08:54:17;;;;;;;11.88;3.42;;;27.00;64.10;;;;;;5011730;28;20029;-76
2022/08/13 08:56:42;;;;;;;8.43;3.33;;;27.00;64.10;;;;;;5011555;28;20512;-77
2022/08/13 08:59:10;;;;;;;7.50;2.78;;;27.00;64.10;;;;;;5011758;28;20065;-77
2022/08/13 09:01:35;;;;;;;10.23;3.08;;;27.00;64.10;;;;;;5011747;28;20037;-77
2022/08/13 09:04:05;;;;;;;9.48;3.00;;;27.00;64.10;;;;;;5011652;28;20021;-77
2022/08/13 09:06:31;;;;;;;9.40;3.40;;;27.00;64.10;;;;;;5011795;28;20141;-77
2022/08/13 09:09:00;;;;;;;12.85;3.25;;;27.00;64.10;;;;;;5011260;28;20506;-77
2022/08/13 09:11:34;;;;;;;10.27;3.20;;;27.00;65.20;;;;;;5011778;28;20049;-76
2022/08/13 09:14:05;;;;;;;9.43;3.13;;;27.00;64.20;;;;;;5011652;28;20170;-74
2022/08/13 09:16:32;;;;;;;7.70;2.88;;;27.00;64.20;;;;;;4999780;28;20403;-75
2022/08/13 09:18:57;;;;;;;3.47;2.25;;;27.00;63.70;;;;;;5020037;28;20036;-74
2022/08/13 09:21:25;;;;;;;5.28;2.78;;;27.00;62.70;;;;;;5039429;28;20402;-74
2022/08/13 09:23:50;;;;;;;4.82;2.78;;;27.00;62.20;;;;;;5051474;28;20025;-74
2022/08/13 09:26:17;;;;;;;3.33;2.72;;;26.90;62.10;;;;;;5035632;28;20037;-75
2022/08/13 09:28:43;;;;;;;3.85;2.30;;;26.90;61.70;;;;;;5014028;28;20048;-74
2022/08/13 09:31:09;;;;;;;5.75;2.38;;;26.90;61.50;;;;;;5031260;28;20495;-74
2022/08/13 09:33:38;;;;;;;6.10;2.17;;;26.90;61.30;;;;;;5035691;28;20439;-75
2022/08/13 09:36:10;;;;;;;5.18;2.47;;;26.90;61.10;;;;;;5044118;28;20025;-74
2022/08/13 09:38:36;;;;;;;;;;;26.90;61.00;;;;;;5031251;28;20022;-74
2022/08/13 09:41:17;;;;;;;3.60;2.17;;;26.90;61.10;;;;;;5064144;28;19905;-74
2022/08/13 09:43:44;;;;;;;3.45;2.40;;;26.90;61.10;;;;;;5030939;28;20033;-74
2022/08/13 09:46:10;;;;;;;4.63;2.22;;;26.90;61.00;;;;;;5032173;28;20018;-74
2022/08/13 09:48:36;;;;;;;4.40;2.30;;;26.90;60.90;;;;;;5032204;28;20020;-76
2022/08/13 09:51:02;;;;;;;3.38;2.25;;;26.90;60.40;;;;;;5026311;28;20021;-76
2022/08/13 09:53:28;;;;;;;6.53;2.30;;;27.00;60.50;;;;;;5054652;28;20029;-76
2022/08/13 09:55:55;;;;;;;2.10;1.83;;;27.10;60.30;;;;;;5055957;28;20365;-76
2022/08/13 09:58:22;;;;;;;4.68;2.10;;;27.10;60.20;;;;;;5056019;28;20028;-76
2022/08/13 10:00:48;;;;;;;2.88;2.00;;;27.10;59.90;;;;;;5054594;28;20118;-75
2022/08/13 10:03:17;;;;;;;6.53;2.15;;;27.20;60.00;;;;;;5039090;28;20654;-76
2022/08/13 10:05:47;;;;;;;3.90;2.17;;;27.20;59.60;;;;;;5036280;28;20448;-76
2022/08/13 10:08:15;;;;;;;2.35;2.00;;;27.20;59.60;;;;;;5034913;28;20053;-76
2022/08/13 10:10:42;;;;;;;3.30;2.30;;;27.30;59.50;;;;;;5035934;28;20022;-76
2022/08/13 10:13:08;;;;;;;2.30;2.10;;;27.30;60.00;;;;;;5036151;28;20546;-76
2022/08/13 10:15:34;;;;;;;3.03;2.00;;;27.30;59.20;;;;;;5036307;28;20113;-76
2022/08/13 10:18:02;;;;;;;5.20;2.47;;;27.30;59.30;;;;;;5034838;28;20027;-76
2022/08/13 10:20:33;;;;;;;2.97;2.10;;;27.30;59.00;;;;;;5034580;28;20026;-76
2022/08/13 10:23:00;;;;;;;2.28;1.83;;;27.40;59.00;;;;;;5034846;28;20108;-76
2022/08/13 10:25:26;;;;;;;2.10;1.88;;;27.40;59.00;;;;;;5046018;28;20033;-76
2022/08/13 10:27:52;;;;;;;3.22;2.00;;;27.40;58.90;;;;;;5054492;28;20021;-76
2022/08/13 10:30:19;;;;;;;2.60;2.08;;;27.40;58.90;;;;;;5042833;28;20060;-76
2022/08/13 10:32:46;;;;;;;2.63;2.42;;;27.40;58.70;;;;;;5034520;28;20102;-77
2022/08/13 10:35:12;;;;;;;2.60;1.90;;;27.50;58.70;;;;;;5035455;28;20017;-76
2022/08/13 10:37:49;;;;;;;3.00;1.90;;;27.50;58.60;;;;;;5034524;28;20017;-77
2022/08/13 10:40:15;;;;;;;2.72;2.00;;;27.50;58.50;;;;;;5034521;28;20029;-76
2022/08/13 10:42:44;;;;;;;2.55;1.92;;;27.50;58.40;;;;;;5035570;28;20029;-76
2022/08/13 10:45:11;;;;;;;2.42;2.22;;;27.50;58.30;;;;;;5034305;28;20557;-77
2022/08/13 10:47:46;;;;;;;2.65;1.70;;;27.50;58.30;;;;;;5034571;28;20021;-77
2022/08/13 10:50:14;;;;;;;2.10;1.95;;;27.60;58.40;;;;;;5033989;28;20017;-77
2022/08/13 10:52:40;;;;;;;2.33;2.10;;;27.60;58.40;;;;;;5034216;28;20468;-77
2022/08/13 10:55:08;;;;;;;2.55;2.08;;;27.60;58.20;;;;;;5034284;28;20075;-77
2022/08/13 10:57:36;;;;;;;3.70;2.03;;;27.60;58.00;;;;;;5035298;28;20108;-76
2022/08/13 11:00:01;;;;;;;2.72;2.03;;;27.60;58.10;;;;;;5034956;28;20053;-76
2022/08/13 11:02:27;;;;;;;3.90;2.03;;;27.60;58.00;;;;;;5035127;28;20071;-74
2022/08/13 11:04:53;;;;;;;1.80;1.67;;;27.60;58.30;;;;;;5034920;28;20075;-74
2022/08/13 11:07:20;;;;;;;1.67;1.50;;;27.60;58.50;;;;;;5035070;28;20053;-76
2022/08/13 11:09:45;;;;;;;1.80;1.65;;;27.60;58.60;;;;;;5034083;28;20467;-75
2022/08/13 11:12:12;;;;;;;2.33;1.98;;;27.60;58.50;;;;;;5033691;28;20026;-75
2022/08/13 11:14:41;;;;;;;5.72;1.92;;;27.70;58.10;;;;;;5035125;28;20148;-75
2022/08/13 11:17:11;;;;;;;3.80;2.45;;;27.70;58.10;;;;;;5035035;28;20025;-75
2022/08/13 11:19:40;;;;;;;4.07;1.70;;;27.70;58.00;;;;;;5035002;28;20048;-75
2022/08/13 11:22:06;;;;;;;2.20;1.60;;;27.70;58.10;;;;;;5033615;28;20021;-75
2022/08/13 11:24:31;;;;;;;3.08;1.58;;;27.70;58.00;;;;;;5037497;28;20442;-75
2022/08/13 11:26:57;;;;;;;4.97;1.85;;;27.70;57.90;;;;;;5054764;28;20127;-75
2022/08/13 11:29:23;;;;;;;2.85;1.77;;;27.70;57.80;;;;;;5050654;28;20510;-77
2022/08/13 11:31:48;;;;;;;3.05;1.90;;;27.80;57.90;;;;;;5034719;28;20082;-77
2022/08/13 11:34:14;;;;;;;2.15;1.95;;;27.80;57.90;;;;;;5033144;28;20036;-76
2022/08/13 11:36:40;;;;;;;2.17;1.83;;;27.80;57.90;;;;;;5034779;28;20075;-75
2022/08/13 11:39:07;;;;;;;1.70;1.60;;;27.80;57.80;;;;;;5016123;28;20104;-75
2022/08/13 11:41:32;;;;;;;2.25;1.85;;;27.80;57.70;;;;;;5013791;28;20061;-76
2022/08/13 11:43:58;;;;;;;1.70;1.60;;;27.80;57.60;;;;;;5014578;28;20046;-76
2022/08/13 11:46:24;;;;;;;1.50;1.40;;;27.80;57.60;;;;;;5014645;28;20080;-76
2022/08/13 11:48:50;;;;;;;2.10;1.90;;;27.80;57.50;;;;;;5013164;28;20404;-75
2022/08/13 11:51:15;;;;;;;2.42;1.60;;;27.80;57.50;;;;;;5014484;28;20105;-75
2022/08/13 11:53:41;;;;;;;1.70;1.60;;;27.80;57.50;;;;;;5014548;28;20026;-74
2022/08/13 11:56:07;;;;;;;1.98;1.63;;;27.80;57.50;;;;;;5014491;28;20030;-74
2022/08/13 11:58:33;;;;;;;1.50;1.42;;;27.90;57.50;;;;;;5014279;28;20061;-74
2022/08/13 12:00:59;;;;;;;2.75;1.75;;;27.90;57.60;;;;;;5013240;28;20026;-74
2022/08/13 12:03:25;;;;;;;1.77;1.45;;;27.90;57.50;;;;;;5014212;28;20072;-74
2022/08/13 12:05:50;;;;;;;2.15;1.85;;;27.90;57.50;;;;;;5013335;28;20498;-74
2022/08/13 12:08:18;;;;;;;3.08;1.40;;;27.90;57.40;;;;;;5012804;28;20029;-74
2022/08/13 12:10:43;;;;;;;1.60;1.50;;;27.90;57.40;;;;;;5013571;28;20025;-79
2022/08/13 12:13:09;;;;;;;1.83;1.35;;;27.90;57.40;;;;;;5013186;28;20018;-79
2022/08/13 12:15:35;;;;;;;2.40;1.40;;;27.90;57.30;;;;;;5013187;28;20109;-79
2022/08/13 12:18:00;;;;;;;1.60;1.50;;;28.00;57.30;;;;;;5013907;28;20073;-79
2022/08/13 12:20:26;;;;;;;1.52;1.42;;;28.00;57.40;;;;;;5014319;28;20025;-79
2022/08/13 12:22:53;;;;;;;1.55;1.38;;;28.00;57.30;;;;;;5014042;28;20115;-79
2022/08/13 12:25:23;;;;;;;2.38;1.60;;;28.00;57.30;;;;;;5012849;28;20022;-80
2022/08/13 12:27:48;;;;;;;1.92;1.60;;;28.00;57.10;;;;;;4996376;28;20034;-77
2022/08/13 12:30:14;;;;;;;1.55;1.45;;;28.00;57.10;;;;;;5024925;28;20051;-80
2022/08/13 12:32:40;;;;;;;1.98;1.52;;;28.00;57.10;;;;;;5032472;28;20105;-79
2022/08/13 12:35:06;;;;;;;2.13;1.50;;;28.00;57.00;;;;;;5032252;28;20021;-79
2022/08/13 12:37:32;;;;;;;2.25;1.48;;;28.00;56.90;;;;;;5033534;28;20100;-79
2022/08/13 12:39:57;;;;;;;1.83;1.73;;;28.10;57.00;;;;;;5033645;28;20560;-73
2022/08/13 12:42:25;;;;;;;1.80;1.65;;;28.10;56.90;;;;;;5033460;28;20087;-73
2022/08/13 12:44:51;;;;;;;2.15;1.60;;;28.10;56.90;;;;;;5032080;28;20021;-74
2022/08/13 12:47:16;;;;;;;1.40;1.30;;;28.10;56.80;;;;;;5015495;28;20034;-73
2022/08/13 12:49:42;;;;;;;1.70;1.60;;;28.10;56.80;;;;;;5032233;28;20026;-73
2022/08/13 12:52:08;;;;;;;1.73;1.63;;;28.10;56.70;;;;;;5033290;28;20112;-73
2022/08/13 12:54:33;;;;;;;1.98;1.30;;;28.20;56.60;;;;;;5032187;28;20123;-74
2022/08/13 12:56:59;;;;;;;1.63;1.50;;;28.20;56.50;;;;;;5032057;28;20069;-74
2022/08/13 12:59:25;;;;;;;1.40;1.30;;;28.20;56.40;;;;;;5031997;28;20105;-75
2022/08/13 13:01:53;;;;;;;2.25;1.30;;;28.20;56.50;;;;;;5031887;28;20029;-75
2022/08/13 13:04:22;;;;;;;1.60;1.48;;;28.20;56.30;;;;;;5032984;28;20084;-75
2022/08/13 13:06:51;;;;;;;1.52;1.40;;;28.20;56.30;;;;;;5033183;28;20084;-75
2022/08/13 13:09:17;;;;;;;1.52;1.40;;;28.30;56.30;;;;;;5031693;28;20013;-75